Time;durP1;ratioP1;P1;durP2;ratioP2;P2;SDS_P1;SDS_P2;PMS_P1;PMS_P2;Temp;Humidity;BMP_temperature;BMP_pressure;BME280_temperature;BME280_humidity;BME280_pressure;Samples;Min_cycle;Max_cycle;Signal;HPM_P1;HPM_P2
2021/08/14 00:01:40;;;;;;;22.67;8.65;;;;;;;17.70;63.28;101939.39;1792806;80;25759;-61
2021/08/14 00:04:08;;;;;;;19.95;7.10;;;;;;;17.62;63.63;101939.27;1793296;80;25813;-62
2021/08/14 00:06:35;;;;;;;21.15;7.22;;;;;;;17.56;63.67;101939.41;1793077;80;25859;-61
2021/08/14 00:09:02;;;;;;;12.40;6.35;;;;;;;17.52;64.49;101937.99;1793406;80;25778;-61
2021/08/14 00:11:29;;;;;;;13.90;6.70;;;;;;;17.43;65.11;101935.70;1790067;80;28174;-61
2021/08/14 00:13:56;;;;;;;12.15;6.22;;;;;;;17.37;64.70;101937.66;1760955;81;26236;-61
2021/08/14 00:16:23;;;;;;;22.65;7.05;;;;;;;17.32;64.63;101936.75;1761166;79;25936;-61
2021/08/14 00:18:50;;;;;;;20.40;6.97;;;;;;;17.35;64.70;101943.26;1761089;80;25802;-61
2021/08/14 00:21:16;;;;;;;15.25;6.12;;;;;;;17.35;65.09;101936.45;1760997;81;25793;-61
2021/08/14 00:23:43;;;;;;;16.93;7.70;;;;;;;17.37;65.07;101939.02;1777346;80;28795;-61
2021/08/14 00:26:11;;;;;;;17.32;6.42;;;;;;;17.37;65.28;101941.73;1783632;80;26015;-62
2021/08/14 00:28:37;;;;;;;18.48;6.20;;;;;;;17.38;65.39;101939.38;1776147;80;25889;-62
2021/08/14 00:31:04;;;;;;;18.40;6.92;;;;;;;17.43;65.18;101938.91;1792871;80;25809;-61
2021/08/14 00:33:31;;;;;;;14.75;5.70;;;;;;;17.45;65.37;101943.19;1780519;79;25740;-61
2021/08/14 00:35:58;;;;;;;22.02;5.92;;;;;;;17.42;66.18;101935.84;1761242;80;28167;-61
2021/08/14 00:38:25;;;;;;;15.50;7.10;;;;;;;17.37;65.93;101937.66;1761765;81;25791;-61
2021/08/14 00:40:52;;;;;;;17.87;6.28;;;;;;;17.36;65.47;101934.09;1761958;81;25912;-61
2021/08/14 00:43:19;;;;;;;20.97;6.35;;;;;;;17.39;65.56;101928.84;1770528;80;25773;-61
2021/08/14 00:45:46;;;;;;;14.95;5.50;;;;;;;17.43;65.48;101931.63;1773033;80;25974;-61
2021/08/14 00:48:13;;;;;;;15.48;5.65;;;;;;;17.48;65.39;101937.97;1761729;80;28244;-61
2021/08/14 00:50:39;;;;;;;18.35;6.12;;;;;;;17.51;65.23;101939.00;1762135;81;25836;-61
2021/08/14 00:53:07;;;;;;;15.45;6.53;;;;;;;17.52;65.42;101936.63;1761853;81;25744;-61
2021/08/14 00:55:34;;;;;;;17.73;6.40;;;;;;;17.44;65.45;101946.91;1760367;80;25766;-61
2021/08/14 00:58:01;;;;;;;11.00;5.90;;;;;;;17.42;64.93;101950.31;1743972;82;25748;-61
2021/08/14 01:00:28;;;;;;;12.75;5.72;;;;;;;17.40;64.73;101935.13;1743804;82;27513;-61
2021/08/14 01:02:56;;;;;;;12.80;6.12;;;;;;;17.36;64.57;101935.45;1743987;82;25783;-61
2021/08/14 01:05:23;;;;;;;19.27;6.53;;;;;;;17.35;64.38;101932.86;1744461;82;25892;-61
2021/08/14 01:07:53;;;;;;;13.15;6.00;;;;;;;17.31;64.38;101933.68;1743850;82;26030;-62
2021/08/14 01:10:25;;;;;;;16.05;5.22;;;;;;;17.29;64.56;101933.00;1742837;80;25709;-62
2021/08/14 01:12:54;;;;;;;16.95;6.33;;;;;;;17.27;64.84;101929.56;1761878;81;28188;-62
2021/08/14 01:15:21;;;;;;;14.43;5.87;;;;;;;17.20;64.83;101927.11;1761902;80;26525;-62
2021/08/14 01:17:49;;;;;;;15.80;6.80;;;;;;;17.15;64.93;101938.44;1737051;79;25782;-62
2021/08/14 01:20:16;;;;;;;19.32;5.72;;;;;;;17.08;64.78;101935.95;1727789;83;25797;-62
2021/08/14 01:22:43;;;;;;;17.05;5.83;;;;;;;17.03;65.74;101943.71;1730798;81;26376;-62
2021/08/14 01:25:12;;;;;;;11.53;5.08;;;;;;;16.98;65.28;101939.24;1761923;80;28181;-62
2021/08/14 01:27:40;;;;;;;19.57;5.95;;;;;;;16.93;66.37;101942.41;1762473;80;25807;-62
2021/08/14 01:30:10;;;;;;;14.93;5.92;;;;;;;16.90;66.06;101938.59;1774297;80;25736;-62
2021/08/14 01:32:38;;;;;;;11.48;6.08;;;;;;;16.91;66.48;101937.59;1743817;82;25929;-61
2021/08/14 01:35:07;;;;;;;16.17;5.58;;;;;;;16.93;66.39;101940.14;1760193;81;25845;-62
2021/08/14 01:37:35;;;;;;;9.90;5.12;;;;;;;16.95;66.28;101937.66;1760784;81;27479;-62
2021/08/14 01:40:03;;;;;;;10.55;5.75;;;;;;;16.97;66.16;101940.25;1787508;80;26009;-62
2021/08/14 01:42:30;;;;;;;16.32;5.70;;;;;;;16.99;66.17;101939.08;1820679;78;25810;-61
2021/08/14 01:44:57;;;;;;;16.67;6.33;;;;;;;17.03;65.91;101932.32;1820852;78;26294;-61
2021/08/14 01:47:24;;;;;;;15.32;5.60;;;;;;;17.07;66.01;101936.98;1790747;78;25830;-62
2021/08/14 01:49:51;;;;;;;9.08;5.30;;;;;;;17.11;65.89;101932.94;1792249;80;28183;-61
2021/08/14 01:52:19;;;;;;;10.93;5.33;;;;;;;17.13;65.80;101934.13;1792025;80;25779;-62
2021/08/14 01:54:47;;;;;;;13.15;5.28;;;;;;;17.15;65.74;101938.44;1784612;80;25774;-62
2021/08/14 01:57:18;;;;;;;11.80;6.33;;;;;;;17.18;65.76;101938.12;1761047;81;25829;-61
2021/08/14 01:59:45;;;;;;;12.10;5.08;;;;;;;17.21;65.63;101937.83;1758262;80;25921;-61
2021/08/14 02:02:12;;;;;;;15.28;5.42;;;;;;;17.26;65.52;101940.61;1749859;81;27546;-61
2021/08/14 02:04:40;;;;;;;17.00;5.30;;;;;;;17.28;65.54;101941.28;1735953;82;25823;-60
2021/08/14 02:07:07;;;;;;;15.45;5.35;;;;;;;17.29;65.11;101943.00;1782632;80;25836;-60
2021/08/14 02:09:34;;;;;;;13.80;5.60;;;;;;;17.24;65.02;101942.09;1803253;78;25720;-60
2021/08/14 02:12:01;;;;;;;13.53;5.45;;;;;;;17.22;64.89;101942.75;1820729;78;25946;-60
2021/08/14 02:14:27;;;;;;;11.73;5.17;;;;;;;17.17;64.75;101935.56;1820794;78;27528;-60
2021/08/14 02:16:54;;;;;;;12.53;4.62;;;;;;;17.13;64.79;101940.45;1820983;78;25872;-60
2021/08/14 02:19:21;;;;;;;10.00;6.17;;;;;;;17.09;64.71;101940.38;1820834;78;25753;-61
2021/08/14 02:21:48;;;;;;;14.13;5.60;;;;;;;17.04;64.70;101934.04;1820622;78;25779;-61
2021/08/14 02:24:15;;;;;;;13.68;4.90;;;;;;;16.99;64.71;101939.56;1810473;78;25802;-61
2021/08/14 02:26:41;;;;;;;10.50;4.78;;;;;;;16.92;64.76;101935.22;1820886;78;27444;-61
2021/08/14 02:29:09;;;;;;;13.83;5.05;;;;;;;16.84;64.92;101937.32;1800731;78;25865;-61
2021/08/14 02:31:36;;;;;;;12.33;4.92;;;;;;;16.73;65.26;101938.37;1791209;80;25740;-60
2021/08/14 02:34:03;;;;;;;8.08;5.20;;;;;;;16.65;65.43;101934.66;1794995;78;26230;-61
2021/08/14 02:36:30;;;;;;;12.55;5.40;;;;;;;16.61;65.66;101934.11;1801013;78;26273;-60
2021/08/14 02:38:57;;;;;;;14.05;5.53;;;;;;;16.61;65.91;101931.39;1791131;78;27596;-60
2021/08/14 02:41:24;;;;;;;10.93;4.80;;;;;;;16.57;65.99;101932.19;1779331;78;25810;-61
2021/08/14 02:43:51;;;;;;;11.25;5.15;;;;;;;16.55;66.48;101928.76;1801594;78;25690;-60
2021/08/14 02:46:18;;;;;;;10.95;5.10;;;;;;;16.51;66.22;101937.34;1797886;78;25934;-60
2021/08/14 02:48:45;;;;;;;12.82;4.37;;;;;;;16.50;66.47;101937.86;1779256;80;25869;-61
2021/08/14 02:51:11;;;;;;;18.10;4.67;;;;;;;16.51;66.49;101937.34;1779444;80;27509;-60
2021/08/14 02:53:38;;;;;;;16.48;5.53;;;;;;;16.51;66.35;101935.50;1779320;80;25805;-60
2021/08/14 02:56:06;;;;;;;12.47;5.10;;;;;;;16.51;66.33;101933.27;1813366;78;26373;-61
2021/08/14 02:58:33;;;;;;;12.23;4.78;;;;;;;16.53;66.41;101930.79;1786072;79;26537;-60
2021/08/14 03:01:00;;;;;;;11.48;5.40;;;;;;;16.54;66.55;101927.05;1817694;78;25756;-60
2021/08/14 03:03:27;;;;;;;11.73;5.22;;;;;;;16.58;66.60;101924.40;1785748;80;27448;-61
2021/08/14 03:05:54;;;;;;;11.10;5.12;;;;;;;16.59;66.42;101920.68;1817451;78;25786;-60
2021/08/14 03:08:21;;;;;;;9.45;4.85;;;;;;;16.60;66.25;101922.88;1785878;79;25762;-61
2021/08/14 03:10:48;;;;;;;9.93;4.75;;;;;;;16.57;66.36;101923.20;1789927;78;26458;-61
2021/08/14 03:13:15;;;;;;;14.98;5.12;;;;;;;16.52;66.40;101918.21;1785723;80;25744;-61
2021/08/14 03:15:42;;;;;;;10.58;5.47;;;;;;;16.51;66.54;101925.13;1752794;81;27476;-60
2021/08/14 03:18:09;;;;;;;9.28;4.75;;;;;;;16.48;66.42;101922.72;1785633;80;25782;-61
2021/08/14 03:20:37;;;;;;;10.00;4.75;;;;;;;16.43;66.53;101922.65;1752641;81;25928;-61
2021/08/14 03:23:04;;;;;;;8.83;4.80;;;;;;;16.40;66.61;101929.75;1809128;78;25962;-60
2021/08/14 03:25:32;;;;;;;12.28;4.70;;;;;;;16.39;66.67;101922.61;1785004;80;25786;-60
2021/08/14 03:27:59;;;;;;;27.20;5.75;;;;;;;16.40;66.54;101927.03;1784967;80;27519;-60
2021/08/14 03:30:26;;;;;;;10.82;5.15;;;;;;;16.44;66.66;101931.67;1790867;80;25481;-60
2021/08/14 03:32:53;;;;;;;18.92;5.20;;;;;;;16.47;66.69;101935.43;1790542;80;25740;-60
2021/08/14 03:35:20;;;;;;;12.15;5.08;;;;;;;16.49;66.60;101931.23;1778960;79;25775;-61
2021/08/14 03:37:47;;;;;;;14.83;5.53;;;;;;;16.48;66.54;101932.23;1759570;81;25767;-60
2021/08/14 03:40:14;;;;;;;12.23;5.17;;;;;;;16.48;66.47;101931.72;1786161;80;27515;-60
2021/08/14 03:42:41;;;;;;;13.80;6.00;;;;;;;16.48;66.30;101933.07;1790679;80;25883;-60
2021/08/14 03:45:09;;;;;;;11.08;4.85;;;;;;;16.46;66.21;101935.07;1790648;80;26455;-60
2021/08/14 03:47:36;;;;;;;12.82;5.35;;;;;;;16.40;66.46;101935.19;1790869;80;25905;-60
2021/08/14 03:50:06;;;;;;;14.87;6.10;;;;;;;16.33;66.57;101935.90;1790762;80;25544;-60
2021/08/14 03:52:34;;;;;;;10.23;4.80;;;;;;;16.31;66.52;101932.47;1791098;80;27443;-60
2021/08/14 03:55:02;;;;;;;9.65;5.10;;;;;;;16.30;66.50;101930.75;1761098;80;25862;-61
2021/08/14 03:57:29;;;;;;;14.28;4.95;;;;;;;16.30;66.64;101931.63;1756243;81;25749;-60
2021/08/14 03:59:56;;;;;;;15.25;4.83;;;;;;;16.26;66.81;101932.42;1755922;81;25801;-60
2021/08/14 04:02:23;;;;;;;15.88;4.80;;;;;;;16.26;67.01;101935.13;1755915;81;25731;-60
2021/08/14 04:04:50;;;;;;;10.50;4.58;;;;;;;16.25;67.74;101928.47;1756188;81;28238;-60
2021/08/14 04:07:18;;;;;;;12.53;5.58;;;;;;;16.24;67.64;101930.34;1760854;80;25786;-60
2021/08/14 04:09:45;;;;;;;14.53;5.83;;;;;;;16.27;67.79;101929.19;1789773;80;25843;-60
2021/08/14 04:12:12;;;;;;;15.03;5.72;;;;;;;16.28;68.33;101925.47;1790831;80;25833;-61
2021/08/14 04:14:39;;;;;;;9.58;5.35;;;;;;;16.26;68.30;101926.98;1790938;80;25902;-60
2021/08/14 04:17:05;;;;;;;15.93;5.33;;;;;;;16.32;68.32;101932.83;1790993;80;28421;-60
2021/08/14 04:19:32;;;;;;;18.52;5.90;;;;;;;16.36;68.08;101936.98;1759838;80;25936;-60
2021/08/14 04:22:00;;;;;;;17.55;5.60;;;;;;;16.45;68.01;101936.07;1790694;80;25849;-60
2021/08/14 04:24:28;;;;;;;12.60;5.42;;;;;;;16.50;68.00;101923.41;1788618;80;25858;-60
2021/08/14 04:26:55;;;;;;;12.82;5.22;;;;;;;16.59;68.21;101927.95;1790814;80;25734;-61
2021/08/14 04:29:23;;;;;;;17.95;6.00;;;;;;;16.64;67.94;101927.03;1790607;80;27527;-61
2021/08/14 04:31:51;;;;;;;10.68;5.92;;;;;;;16.72;67.80;101933.06;1790631;80;25809;-61
2021/08/14 04:34:18;;;;;;;13.05;5.72;;;;;;;16.77;67.62;101933.48;1790410;80;25770;-61
2021/08/14 04:36:46;;;;;;;16.77;5.80;;;;;;;16.81;67.89;101932.69;1790462;80;25805;-61
2021/08/14 04:39:13;;;;;;;13.22;5.47;;;;;;;16.85;67.61;101936.31;1789170;80;25757;-60
2021/08/14 04:41:39;;;;;;;14.98;5.75;;;;;;;16.92;67.57;101936.58;1789420;80;27543;-61
2021/08/14 04:44:06;;;;;;;14.45;6.30;;;;;;;17.02;67.59;101931.13;1789379;80;25747;-60
2021/08/14 04:46:33;;;;;;;13.10;5.95;;;;;;;17.10;67.43;101941.25;1774559;80;25979;-60
2021/08/14 04:49:00;;;;;;;17.37;6.47;;;;;;;17.16;67.23;101940.16;1812326;79;25796;-60
2021/08/14 04:51:27;;;;;;;9.73;6.10;;;;;;;17.24;67.06;101938.53;1805252;78;25720;-60
2021/08/14 04:53:54;;;;;;;16.62;5.90;;;;;;;17.25;66.99;101934.81;1817663;78;27966;-60
2021/08/14 04:56:21;;;;;;;19.65;7.03;;;;;;;17.29;66.82;101936.20;1820854;78;25752;-60
2021/08/14 04:58:47;;;;;;;15.85;6.58;;;;;;;17.34;66.54;101938.83;1821078;78;25781;-60
2021/08/14 05:01:14;;;;;;;15.50;7.05;;;;;;;17.39;66.38;101932.09;1803010;78;26474;-60
2021/08/14 05:03:41;;;;;;;16.70;7.40;;;;;;;17.43;66.36;101934.34;1755018;80;26139;-60
2021/08/14 05:06:09;;;;;;;18.35;7.60;;;;;;;17.47;65.86;101933.02;1785667;80;27576;-60
2021/08/14 05:08:36;;;;;;;29.67;8.88;;;;;;;17.47;64.99;101929.45;1815166;78;25959;-62
2021/08/14 05:11:04;;;;;;;22.07;7.47;;;;;;;17.44;64.27;101929.75;1817883;78;25836;-61
2021/08/14 05:13:31;;;;;;;29.07;8.05;;;;;;;17.42;64.24;101929.91;1817832;78;25754;-61
2021/08/14 05:15:57;;;;;;;31.35;8.78;;;;;;;17.36;63.97;101928.66;1817832;78;26497;-61
2021/08/14 05:18:24;;;;;;;16.62;8.08;;;;;;;17.33;64.10;101930.31;1817931;78;27433;-64
2021/08/14 05:20:51;;;;;;;28.38;8.65;;;;;;;17.37;64.13;101934.94;1817517;78;26260;-61
2021/08/14 05:23:18;;;;;;;26.73;8.98;;;;;;;17.43;64.14;101936.19;1797817;78;25823;-61
2021/08/14 05:25:45;;;;;;;15.90;8.03;;;;;;;17.50;64.18;101927.28;1785160;79;25835;-61
2021/08/14 05:28:11;;;;;;;28.05;9.10;;;;;;;17.59;64.01;101928.72;1813099;78;25785;-60
2021/08/14 05:30:38;;;;;;;19.55;8.60;;;;;;;17.68;63.92;101924.55;1804764;78;27864;-61
2021/08/14 05:33:05;;;;;;;44.88;8.63;;;;;;;17.79;63.70;101930.78;1787130;79;25715;-60
2021/08/14 05:35:32;;;;;;;22.05;7.65;;;;;;;17.89;63.40;101930.69;1799897;79;25839;-60
2021/08/14 05:37:59;;;;;;;28.77;8.25;;;;;;;17.95;62.38;101917.31;1799566;79;25842;-60
2021/08/14 05:40:26;;;;;;;26.55;8.08;;;;;;;18.01;62.18;101921.31;1798168;79;25738;-60
2021/08/14 05:42:53;;;;;;;12.90;6.53;;;;;;;18.08;61.93;101926.47;1798213;79;27478;-60
2021/08/14 05:45:22;;;;;;;27.00;6.72;;;;;;;18.13;61.29;101921.91;1788460;79;25794;-60
2021/08/14 05:47:49;;;;;;;19.65;6.75;;;;;;;18.18;60.97;101918.22;1798277;79;25781;-61
2021/08/14 05:50:16;;;;;;;14.50;6.55;;;;;;;18.19;59.71;101917.70;1798223;79;25841;-61
2021/08/14 05:52:43;;;;;;;15.78;6.42;;;;;;;18.20;59.63;101920.78;1797329;79;25770;-61
2021/08/14 05:55:11;;;;;;;20.72;5.72;;;;;;;18.26;59.72;101926.45;1798153;79;28250;-61
2021/08/14 05:57:38;;;;;;;16.55;6.17;;;;;;;18.34;59.03;101927.00;1798127;79;26511;-61
2021/08/14 06:00:06;;;;;;;17.67;6.03;;;;;;;18.41;58.66;101928.09;1797839;79;25772;-61
2021/08/14 06:02:34;;;;;;;19.07;6.50;;;;;;;18.44;58.65;101926.39;1766625;81;26407;-61
2021/08/14 06:05:01;;;;;;;29.32;6.33;;;;;;;18.53;58.50;101923.72;1766458;81;25834;-62
2021/08/14 06:07:34;;;;;;;14.38;5.85;;;;;;;18.57;58.56;101931.94;1766579;81;28574;-62
2021/08/14 06:10:03;;;;;;;15.53;6.55;;;;;;;18.63;58.51;101927.19;1766627;81;25850;-62
2021/08/14 06:12:30;;;;;;;13.32;6.58;;;;;;;18.67;58.02;101926.36;1766753;81;25807;-62
2021/08/14 06:14:57;;;;;;;16.15;7.05;;;;;;;18.71;57.93;101920.42;1766654;79;26483;-62
2021/08/14 06:17:23;;;;;;;15.93;6.05;;;;;;;18.76;57.41;101927.63;1765744;81;25859;-62
2021/08/14 06:19:51;;;;;;;21.27;6.47;;;;;;;18.82;57.58;101925.25;1766322;81;28129;-62
2021/08/14 06:22:18;;;;;;;12.43;6.62;;;;;;;18.87;57.83;101922.91;1765725;81;25916;-61
2021/08/14 06:24:45;;;;;;;12.07;6.30;;;;;;;18.89;57.54;101918.13;1796122;79;25959;-62
2021/08/14 06:27:12;;;;;;;14.38;5.83;;;;;;;18.95;57.22;101920.74;1798035;79;26484;-62
2021/08/14 06:29:38;;;;;;;12.68;6.47;;;;;;;18.97;56.76;101912.73;1774666;79;25776;-62
2021/08/14 06:32:06;;;;;;;15.00;6.80;;;;;;;19.05;57.00;101915.49;1798135;79;27466;-62
2021/08/14 06:34:33;;;;;;;11.50;5.78;;;;;;;19.10;56.74;101914.16;1797990;79;25796;-61
2021/08/14 06:37:00;;;;;;;17.77;7.15;;;;;;;19.14;56.59;101906.84;1779617;80;25731;-62
2021/08/14 06:39:27;;;;;;;22.65;6.50;;;;;;;19.22;56.69;101907.39;1779592;80;26455;-62
2021/08/14 06:41:53;;;;;;;18.98;7.30;;;;;;;19.29;56.45;101905.70;1779738;79;25989;-61
2021/08/14 06:44:20;;;;;;;15.68;5.87;;;;;;;19.37;56.47;101903.00;1779383;80;27523;-62
2021/08/14 06:46:47;;;;;;;16.27;7.17;;;;;;;19.42;54.94;101902.49;1773761;80;25723;-61
2021/08/14 06:49:14;;;;;;;10.93;6.22;;;;;;;19.48;55.02;101903.17;1769678;81;25829;-62
2021/08/14 06:51:41;;;;;;;14.18;6.78;;;;;;;19.57;54.75;101895.00;1769128;79;26420;-62
2021/08/14 06:54:08;;;;;;;19.12;7.20;;;;;;;19.67;55.07;101902.03;1769608;79;25723;-62
2021/08/14 06:56:35;;;;;;;17.75;5.95;;;;;;;19.76;54.78;101906.13;1769671;81;28121;-62
2021/08/14 06:59:02;;;;;;;13.20;6.03;;;;;;;19.84;54.72;101902.88;1781985;79;25817;-62
2021/08/14 07:01:29;;;;;;;18.15;6.75;;;;;;;19.95;54.35;101900.87;1780001;80;25758;-62
2021/08/14 07:03:56;;;;;;;18.23;6.72;;;;;;;20.06;54.15;101899.66;1779750;80;26525;-62
2021/08/14 07:06:26;;;;;;;15.00;6.10;;;;;;;20.18;54.15;101899.66;1779979;80;25830;-62
2021/08/14 07:08:53;;;;;;;17.82;6.45;;;;;;;20.27;53.72;101904.09;1779907;79;28182;-61
2021/08/14 07:11:22;;;;;;;19.73;6.40;;;;;;;20.40;53.58;101899.95;1779775;80;25850;-62
2021/08/14 07:13:50;;;;;;;11.33;5.25;;;;;;;20.48;53.52;101901.33;1776320;79;25834;-62
2021/08/14 07:16:18;;;;;;;18.27;6.10;;;;;;;20.59;53.03;101892.73;1749062;82;26509;-62
2021/08/14 07:18:46;;;;;;;19.87;6.33;;;;;;;20.66;51.83;101894.26;1748887;82;25808;-62
2021/08/14 07:21:14;;;;;;;13.75;5.35;;;;;;;20.75;51.57;101896.50;1757144;80;28359;-62
2021/08/14 07:23:40;;;;;;;17.00;5.92;;;;;;;20.86;51.88;101891.98;1780818;79;25912;-62
2021/08/14 07:26:07;;;;;;;9.63;5.17;;;;;;;20.97;51.90;101889.40;1775615;80;26510;-62
2021/08/14 07:28:34;;;;;;;18.02;5.80;;;;;;;21.07;51.18;101892.74;1782751;79;25794;-62
2021/08/14 07:31:14;;;;;;;15.80;5.33;;;;;;;21.18;51.33;101894.75;1780210;80;25829;-63
2021/08/14 07:33:41;;;;;;;12.98;5.33;;;;;;;21.28;51.17;101892.64;1779797;79;27459;-62
2021/08/14 07:36:09;;;;;;;19.20;5.40;;;;;;;21.36;50.44;101893.12;1784246;79;25799;-62
2021/08/14 07:38:36;;;;;;;26.52;7.92;;;;;;;21.48;50.65;101894.92;1785795;80;25809;-61
2021/08/14 07:41:03;;;;;;;17.00;6.15;;;;;;;21.59;50.68;101890.44;1788087;80;25885;-62
2021/08/14 07:43:30;;;;;;;16.07;5.80;;;;;;;21.75;50.46;101893.54;1786854;79;26428;-62
2021/08/14 07:45:56;;;;;;;19.45;10.65;;;;;;;21.87;50.41;101886.61;1786519;79;27468;-62
2021/08/14 07:48:23;;;;;;;15.08;5.65;;;;;;;22.00;50.67;101887.87;1782038;80;25857;-61
2021/08/14 07:50:50;;;;;;;11.88;5.15;;;;;;;22.10;50.40;101882.13;1784696;80;26578;-61
2021/08/14 07:53:17;;;;;;;23.35;5.40;;;;;;;22.19;49.87;101887.86;1787612;80;25796;-62
2021/08/14 07:55:44;;;;;;;12.45;4.92;;;;;;;22.29;49.13;101887.08;1781140;80;25759;-62
2021/08/14 07:58:12;;;;;;;15.15;5.60;;;;;;;22.43;49.24;101890.04;1779491;79;27385;-63
2021/08/14 08:00:40;;;;;;;12.93;5.12;;;;;;;22.53;48.55;101885.66;1783698;79;25770;-62
2021/08/14 08:03:08;;;;;;;21.62;5.30;;;;;;;22.62;48.35;101883.16;1792279;80;25760;-62
2021/08/14 08:05:37;;;;;;;8.13;4.50;;;;;;;22.74;48.53;101875.30;1792468;79;26586;-62
2021/08/14 08:08:06;;;;;;;11.35;5.22;;;;;;;22.87;48.53;101878.20;1786581;80;25963;-62
2021/08/14 08:10:34;;;;;;;19.70;5.08;;;;;;;23.01;47.27;101882.50;1787046;80;27448;-62
2021/08/14 08:13:02;;;;;;;16.85;5.08;;;;;;;23.13;47.37;101880.94;1792444;79;25861;-63
2021/08/14 08:15:30;;;;;;;13.85;3.98;;;;;;;23.26;47.63;101872.08;1793413;80;25685;-62
2021/08/14 08:17:57;;;;;;;8.45;4.40;;;;;;;23.36;46.17;101871.20;1781424;80;25829;-62
2021/08/14 08:20:25;;;;;;;12.63;4.83;;;;;;;23.49;46.06;101868.28;1786282;80;25802;-63
2021/08/14 08:22:53;;;;;;;10.30;4.65;;;;;;;23.64;46.41;101872.34;1790640;80;27512;-62
2021/08/14 08:25:22;;;;;;;14.43;4.67;;;;;;;23.77;45.40;101871.08;1779088;80;25878;-62
2021/08/14 08:27:50;;;;;;;13.78;5.83;;;;;;;23.90;45.49;101868.46;1781073;80;25878;-62
2021/08/14 08:30:19;;;;;;;9.05;4.50;;;;;;;24.06;45.68;101867.87;1792069;80;25809;-62
2021/08/14 08:32:46;;;;;;;9.48;4.65;;;;;;;24.21;44.99;101869.98;1792504;80;25829;-61
2021/08/14 08:35:14;;;;;;;10.00;3.72;;;;;;;24.34;43.91;101878.01;1792156;79;27510;-61
2021/08/14 08:37:42;;;;;;;6.28;2.98;;;;;;;24.46;43.27;101873.66;1782297;80;25855;-61
2021/08/14 08:40:10;;;;;;;9.35;3.70;;;;;;;24.54;41.88;101866.61;1782492;80;25805;-62
2021/08/14 08:42:39;;;;;;;11.30;3.25;;;;;;;24.70;41.45;101867.36;1782492;80;26541;-61
2021/08/14 08:45:06;;;;;;;10.88;4.05;;;;;;;24.89;42.07;101867.66;1784013;80;25785;-62
2021/08/14 08:47:38;;;;;;;9.88;4.03;;;;;;;25.07;41.98;101861.56;1768758;80;27629;-62
2021/08/14 08:50:08;;;;;;;7.50;3.50;;;;;;;25.23;41.11;101861.73;1765621;80;25830;-62
2021/08/14 08:52:36;;;;;;;8.68;3.62;;;;;;;25.37;40.42;101855.72;1766654;80;25762;-62
2021/08/14 08:55:05;;;;;;;18.87;4.08;;;;;;;25.52;39.95;101859.70;1766543;81;25789;-62
2021/08/14 08:57:32;;;;;;;5.28;3.20;;;;;;;25.69;39.30;101859.62;1765326;81;25717;-62
2021/08/14 09:00:00;;;;;;;11.60;3.85;;;;;;;25.85;39.70;101861.63;1767734;79;28299;-61
2021/08/14 09:02:31;;;;;;;7.87;3.17;;;;;;;26.05;39.46;101856.09;1759592;81;26423;-61
2021/08/14 09:05:20;;;;;;;13.40;3.50;;;;;;;26.21;38.85;101859.84;1785000;80;25900;-61
2021/08/14 09:07:50;;;;;;;15.70;3.35;;;;;;;26.39;38.55;101854.19;1777007;79;25759;-63
2021/08/14 09:10:26;;;;;;;7.78;3.25;;;;;;;26.61;38.98;101849.75;1771205;80;26064;-63
2021/08/14 09:12:54;;;;;;;8.38;3.37;;;;;;;26.82;38.23;101847.26;1749324;80;28318;-62
2021/08/14 09:15:32;;;;;;;5.65;3.27;;;;;;;27.08;38.04;101850.95;1761189;80;25833;-62
2021/08/14 09:18:03;;;;;;;5.40;3.08;;;;;;;27.33;36.58;101846.36;1723755;81;25924;-62
2021/08/14 09:20:36;;;;;;;11.88;3.02;;;;;;;27.55;36.36;101841.88;1751281;81;25851;-62
2021/08/14 09:23:10;;;;;;;5.65;3.17;;;;;;;27.83;36.09;101838.37;1754444;80;25769;-62
2021/08/14 09:25:44;;;;;;;10.20;3.20;;;;;;;28.14;34.78;101835.22;1784120;80;27456;-62
2021/08/14 09:28:14;;;;;;;8.10;3.50;;;;;;;28.49;34.80;101841.02;1781841;78;25817;-62
2021/08/14 09:30:52;;;;;;;10.60;3.33;;;;;;;28.85;33.29;101836.56;1773385;80;25706;-61
2021/08/14 09:33:26;;;;;;;14.35;3.50;;;;;;;29.16;32.92;101831.86;1784826;80;26130;-62
2021/08/14 09:36:03;;;;;;;11.33;3.62;;;;;;;29.61;32.48;101832.48;1785465;80;25740;-62
2021/08/14 09:38:41;;;;;;;11.55;3.40;;;;;;;30.14;30.20;101825.19;1799667;79;28172;-62
2021/08/14 09:41:16;;;;;;;8.95;3.00;;;;;;;30.51;30.44;101829.05;1799970;79;25865;-63
2021/08/14 09:43:49;;;;;;;5.53;2.60;;;;;;;31.08;29.38;101820.46;1790309;78;25821;-63
2021/08/14 09:46:16;;;;;;;15.30;2.80;;;;;;;31.63;29.68;101818.11;1792947;78;27053;-63
2021/08/14 09:48:55;;;;;;;6.53;3.20;;;;;;;32.32;28.92;101815.55;1823247;78;25801;-63
2021/08/14 09:51:32;;;;;;;6.80;2.87;;;;;;;32.80;26.90;101815.06;1790424;80;27448;-63
2021/08/14 09:54:02;;;;;;;13.75;3.67;;;;;;;33.15;26.69;101813.22;1790265;80;25762;-63
2021/08/14 09:56:37;;;;;;;9.28;3.37;;;;;;;33.56;25.16;101815.55;1781071;80;25825;-63
2021/08/14 09:59:04;;;;;;;9.35;3.00;;;;;;;33.83;26.35;101813.23;1768164;80;25877;-63
2021/08/14 10:01:34;;;;;;;13.68;3.02;;;;;;;34.34;25.49;101808.50;1769784;79;25743;-62
2021/08/14 10:04:02;;;;;;;8.53;2.70;;;;;;;34.68;23.99;101800.28;1788292;79;28277;-62
2021/08/14 10:06:30;;;;;;;3.85;2.85;;;;;;;34.92;23.73;101802.88;1788339;80;25747;-62
2021/08/14 10:08:58;;;;;;;6.15;2.60;;;;;;;35.30;24.36;101798.47;1787648;80;25777;-62
2021/08/14 10:11:25;;;;;;;4.67;2.50;;;;;;;35.84;22.34;101790.03;1792031;78;26562;-64
2021/08/14 10:13:52;;;;;;;7.40;2.92;;;;;;;36.04;21.29;101787.77;1767245;79;25304;-63
2021/08/14 10:16:19;;;;;;;4.90;2.70;;;;;;;36.25;21.06;101779.88;1761627;81;27458;-63
2021/08/14 10:18:46;;;;;;;7.05;2.60;;;;;;;36.50;21.82;101775.58;1794063;79;26286;-63
2021/08/14 10:21:15;;;;;;;10.53;3.67;;;;;;;36.78;22.13;101780.72;1761198;81;26254;-63
2021/08/14 10:23:45;;;;;;;12.75;3.52;;;;;;;37.27;21.92;101775.63;1810849;78;25737;-63
2021/08/14 10:26:16;;;;;;;11.57;2.95;;;;;;;37.57;21.47;101775.66;1825737;78;26318;-63
2021/08/14 10:28:53;;;;;;;7.15;3.00;;;;;;;37.94;20.26;101765.75;1826975;78;28199;-63
2021/08/14 10:31:40;;;;;;;10.48;3.50;;;;;;;38.17;19.91;101764.06;1822123;78;25796;-63
2021/08/14 10:34:21;;;;;;;8.65;2.87;;;;;;;38.67;19.13;101758.62;1762945;81;25799;-63
2021/08/14 10:36:49;;;;;;;7.67;2.92;;;;;;;39.01;19.10;101764.58;1777549;80;26720;-63
2021/08/14 10:39:30;;;;;;;5.90;2.87;;;;;;;39.42;19.25;101754.63;1756267;80;25768;-63
2021/08/14 10:42:05;;;;;;;10.63;3.27;;;;;;;39.54;18.49;101752.16;1756149;80;27456;-63
2021/08/14 10:44:46;;;;;;;6.40;2.98;;;;;;;39.95;18.92;101742.64;1776582;80;25750;-63
2021/08/14 10:47:37;;;;;;;8.13;2.93;;;;;;;40.22;18.25;101745.47;1759263;80;25747;-63
2021/08/14 10:50:05;;;;;;;8.85;2.92;;;;;;;40.62;18.11;101741.23;1764122;79;25864;-63
2021/08/14 10:52:34;;;;;;;5.25;2.15;;;;;;;40.89;17.01;101734.63;1802595;78;25833;-63
2021/08/14 10:55:11;;;;;;;13.32;3.45;;;;;;;41.15;16.91;101722.73;1799652;79;27526;-64
2021/08/14 10:57:45;;;;;;;6.05;2.87;;;;;;;41.47;16.87;101728.41;1782837;80;25754;-64
2021/08/14 11:00:20;;;;;;;6.03;2.92;;;;;;;41.44;15.59;101725.05;1782660;80;25761;-64
2021/08/14 11:03:07;;;;;;;8.30;2.45;;;;;;;41.24;15.55;101721.36;1782695;79;25780;-63
2021/08/14 11:05:36;;;;;;;3.85;2.62;;;;;;;41.36;15.31;101713.70;1781821;80;25698;-64
2021/08/14 11:08:24;;;;;;;10.48;3.27;;;;;;;41.43;15.23;101712.08;1782854;80;27486;-63
2021/08/14 11:10:51;;;;;;;9.13;2.87;;;;;;;41.39;16.02;101711.05;1750778;81;25765;-64
2021/08/14 11:13:39;;;;;;;10.58;3.08;;;;;;;41.36;15.90;101709.45;1751626;81;25747;-61
2021/08/14 11:16:06;;;;;;;5.90;2.60;;;;;;;41.58;15.95;101707.17;1782640;79;26482;-62
2021/08/14 11:18:55;;;;;;;5.05;2.55;;;;;;;41.83;15.56;101700.52;1783164;80;25797;-64
2021/08/14 11:21:44;;;;;;;7.55;2.83;;;;;;;41.86;14.60;101699.31;1783104;79;27555;-63
2021/08/14 11:24:35;;;;;;;;;;;;;;;41.89;15.66;101696.41;1759398;80;25808;-64
2021/08/14 11:27:22;;;;;;;7.62;2.52;;;;;;;42.25;15.95;101692.50;1777689;80;25778;-63